Track Удовиченко Игорь

Time Latitude Longitude Accuracy (66% radius in meters) Altitude (meters) Speed (km/hour) Bearing (degrees) Battery (%) GPS flag
07:14:51 57.203969 60.118253 0 0 0 0 1 delete
07:14:50 57.203971 60.118248 0 0 0 0 1 delete
07:14:49 57.203973 60.118240 0 0 0 0 1 delete
07:14:48 57.203975 60.118231 0 0 0 0 1 delete
07:14:47 57.203978 60.118219 0 0 0 0 1 delete
07:14:46 57.203981 60.118204 0 0 0 0 1 delete
07:14:45 57.203982 60.118190 0 0 0 0 1 delete
07:14:44 57.203984 60.118177 0 0 0 0 1 delete
07:14:43 57.203992 60.118158 0 0 0 0 1 delete
07:14:42 57.204007 60.118131 0 0 0 0 1 delete
07:14:41 57.204023 60.118097 0 0 0 0 1 delete
07:14:40 57.204038 60.118065 0 0 0 0 1 delete
07:14:39 57.204053 60.118038 0 0 0 0 1 delete
07:14:38 57.204066 60.118014 0 0 0 0 1 delete
07:14:37 57.204079 60.117991 0 0 0 0 1 delete
07:14:36 57.204093 60.117971 0 0 0 0 1 delete
07:14:35 57.204107 60.117952 0 0 0 0 1 delete
07:14:34 57.204122 60.117931 0 0 0 0 1 delete
07:14:33 57.204137 60.117907 0 0 0 0 1 delete
07:14:32 57.204152 60.117881 0 0 0 0 1 delete
07:14:31 57.204166 60.117860 0 0 0 0 1 delete
07:14:30 57.204182 60.117837 0 0 0 0 1 delete
07:14:29 57.204200 60.117816 0 0 0 0 1 delete
07:14:28 57.204218 60.117793 0 0 0 0 1 delete
07:14:27 57.204237 60.117769 0 0 0 0 1 delete
07:14:26 57.204258 60.117741 0 0 0 0 1 delete
07:14:25 57.204278 60.117713 0 0 0 0 1 delete
07:14:24 57.204297 60.117686 0 0 0 0 1 delete
07:14:23 57.204315 60.117662 0 0 0 0 1 delete
07:14:22 57.204331 60.117640 0 0 0 0 1 delete
07:14:21 57.204347 60.117616 0 0 0 0 1 delete
07:14:20 57.204364 60.117593 0 0 0 0 1 delete
07:14:19 57.204382 60.117570 0 0 0 0 1 delete
07:14:18 57.204401 60.117548 0 0 0 0 1 delete
07:14:17 57.204422 60.117528 0 0 0 0 1 delete
07:14:16 57.204445 60.117508 0 0 0 0 1 delete
07:14:15 57.204470 60.117486 0 0 0 0 1 delete
07:14:14 57.204495 60.117468 0 0 0 0 1 delete
07:14:13 57.204521 60.117452 0 0 0 0 1 delete
07:14:12 57.204549 60.117441 0 0 0 0 1 delete
07:14:11 57.204580 60.117432 0 0 0 0 1 delete
07:14:10 57.204612 60.117426 0 0 0 0 1 delete
07:14:09 57.204645 60.117423 0 0 0 0 1 delete
07:14:08 57.204679 60.117422 0 0 0 0 1 delete
07:14:07 57.204711 60.117424 0 0 0 0 1 delete
07:14:06 57.204741 60.117433 0 0 0 0 1 delete
07:14:05 57.204770 60.117442 0 0 0 0 1 delete
07:14:04 57.204799 60.117454 0 0 0 0 1 delete
07:14:03 57.204829 60.117463 0 0 0 0 1 delete
07:14:02 57.204857 60.117476 0 0 0 0 1 delete